sensor_id;sensor_type;location;lat;lon;timestamp;temperature;humidity
6174;DHT22;3120;48.796;9.796;2023-05-10T00:01:48;13.80;99.90
6174;DHT22;3120;48.796;9.796;2023-05-10T00:04:14;13.90;99.90
6174;DHT22;3120;48.796;9.796;2023-05-10T00:06:39;13.90;99.90
6174;DHT22;3120;48.796;9.796;2023-05-10T00:09:05;14.90;99.90
6174;DHT22;3120;48.796;9.796;2023-05-10T00:11:31;13.80;99.90
6174;DHT22;3120;48.796;9.796;2023-05-10T00:13:56;13.80;99.90
6174;DHT22;3120;48.796;9.796;2023-05-10T00:16:22;13.80;99.90
6174;DHT22;3120;48.796;9.796;2023-05-10T00:18:47;14.00;99.90
6174;DHT22;3120;48.796;9.796;2023-05-10T00:21:13;13.80;99.90
6174;DHT22;3120;48.796;9.796;2023-05-10T00:23:39;13.70;99.90
6174;DHT22;3120;48.796;9.796;2023-05-10T00:26:04;13.80;99.90
6174;DHT22;3120;48.796;9.796;2023-05-10T00:28:30;15.10;99.90
6174;DHT22;3120;48.796;9.796;2023-05-10T00:30:55;13.80;99.90
6174;DHT22;3120;48.796;9.796;2023-05-10T00:33:21;14.30;99.90
6174;DHT22;3120;48.796;9.796;2023-05-10T00:35:47;13.80;99.90
6174;DHT22;3120;48.796;9.796;2023-05-10T00:38:12;14.70;99.90
6174;DHT22;3120;48.796;9.796;2023-05-10T00:40:38;13.70;99.90
6174;DHT22;3120;48.796;9.796;2023-05-10T00:43:03;14.00;99.90
6174;DHT22;3120;48.796;9.796;2023-05-10T00:45:31;13.70;99.90
6174;DHT22;3120;48.796;9.796;2023-05-10T00:47:58;13.80;99.90
6174;DHT22;3120;48.796;9.796;2023-05-10T00:50:25;13.70;99.90
6174;DHT22;3120;48.796;9.796;2023-05-10T00:52:51;14.30;99.90
6174;DHT22;3120;48.796;9.796;2023-05-10T00:55:17;13.70;99.90
6174;DHT22;3120;48.796;9.796;2023-05-10T00:57:43;13.60;99.90
6174;DHT22;3120;48.796;9.796;2023-05-10T01:00:09;13.60;99.90
6174;DHT22;3120;48.796;9.796;2023-05-10T01:02:36;13.60;99.90
6174;DHT22;3120;48.796;9.796;2023-05-10T01:05:02;13.80;99.90
6174;DHT22;3120;48.796;9.796;2023-05-10T01:07:29;13.60;99.90
6174;DHT22;3120;48.796;9.796;2023-05-10T01:09:54;13.60;99.90
6174;DHT22;3120;48.796;9.796;2023-05-10T01:12:20;13.60;99.90
6174;DHT22;3120;48.796;9.796;2023-05-10T01:14:46;13.40;99.90
6174;DHT22;3120;48.796;9.796;2023-05-10T01:17:12;13.30;99.90
6174;DHT22;3120;48.796;9.796;2023-05-10T01:19:38;12.90;99.90
6174;DHT22;3120;48.796;9.796;2023-05-10T01:28:17;13.10;99.90
6174;DHT22;3120;48.796;9.796;2023-05-10T01:31:18;13.00;99.90
6174;DHT22;3120;48.796;9.796;2023-05-10T01:34:02;12.90;99.90
6174;DHT22;3120;48.796;9.796;2023-05-10T01:36:35;12.80;99.90
6174;DHT22;3120;48.796;9.796;2023-05-10T01:39:35;13.30;99.90
6174;DHT22;3120;48.796;9.796;2023-05-10T01:42:16;12.80;99.90
6174;DHT22;3120;48.796;9.796;2023-05-10T01:44:46;12.80;99.90
6174;DHT22;3120;48.796;9.796;2023-05-10T01:47:20;12.70;99.90
6174;DHT22;3120;48.796;9.796;2023-05-10T01:50:02;12.70;99.90
6174;DHT22;3120;48.796;9.796;2023-05-10T01:52:33;12.70;99.90
6174;DHT22;3120;48.796;9.796;2023-05-10T01:55:02;12.70;99.90
6174;DHT22;3120;48.796;9.796;2023-05-10T01:57:33;12.70;99.90
6174;DHT22;3120;48.796;9.796;2023-05-10T02:00:01;12.70;99.90
6174;DHT22;3120;48.796;9.796;2023-05-10T02:02:29;13.60;99.90
6174;DHT22;3120;48.796;9.796;2023-05-10T02:04:59;12.70;99.90
6174;DHT22;3120;48.796;9.796;2023-05-10T02:07:27;12.70;99.90
6174;DHT22;3120;48.796;9.796;2023-05-10T02:09:53;12.70;99.90
6174;DHT22;3120;48.796;9.796;2023-05-10T02:12:23;12.70;99.90
6174;DHT22;3120;48.796;9.796;2023-05-10T02:14:51;12.70;99.90
6174;DHT22;3120;48.796;9.796;2023-05-10T02:17:18;12.70;99.90
6174;DHT22;3120;48.796;9.796;2023-05-10T02:19:45;12.80;99.90
6174;DHT22;3120;48.796;9.796;2023-05-10T02:22:13;12.60;99.90
6174;DHT22;3120;48.796;9.796;2023-05-10T02:24:38;12.40;99.90
6174;DHT22;3120;48.796;9.796;2023-05-10T02:27:06;12.60;99.90
6174;DHT22;3120;48.796;9.796;2023-05-10T02:29:32;12.60;99.90
6174;DHT22;3120;48.796;9.796;2023-05-10T02:31:59;13.30;99.90
6174;DHT22;3120;48.796;9.796;2023-05-10T02:34:26;12.60;99.90
6174;DHT22;3120;48.796;9.796;2023-05-10T02:36:54;12.60;99.90
6174;DHT22;3120;48.796;9.796;2023-05-10T02:39:21;12.60;99.90
6174;DHT22;3120;48.796;9.796;2023-05-10T02:41:48;12.60;99.90
6174;DHT22;3120;48.796;9.796;2023-05-10T02:44:17;12.60;99.90
6174;DHT22;3120;48.796;9.796;2023-05-10T02:46:43;12.60;99.90
6174;DHT22;3120;48.796;9.796;2023-05-10T02:49:09;12.50;99.90
6174;DHT22;3120;48.796;9.796;2023-05-10T02:51:37;12.50;99.90
6174;DHT22;3120;48.796;9.796;2023-05-10T02:54:27;12.60;99.90
6174;DHT22;3120;48.796;9.796;2023-05-10T02:56:58;13.30;99.90
6174;DHT22;3120;48.796;9.796;2023-05-10T02:59:26;12.60;99.90
6174;DHT22;3120;48.796;9.796;2023-05-10T03:01:51;12.50;99.90
6174;DHT22;3120;48.796;9.796;2023-05-10T03:04:17;12.50;99.90
6174;DHT22;3120;48.796;9.796;2023-05-10T03:06:43;12.50;99.90
6174;DHT22;3120;48.796;9.796;2023-05-10T03:09:09;12.40;99.90
6174;DHT22;3120;48.796;9.796;2023-05-10T03:17:30;12.40;99.90
6174;DHT22;3120;48.796;9.796;2023-05-10T03:23:04;12.40;99.90
6174;DHT22;3120;48.796;9.796;2023-05-10T03:25:32;12.40;99.90
6174;DHT22;3120;48.796;9.796;2023-05-10T03:28:00;12.70;99.90
6174;DHT22;3120;48.796;9.796;2023-05-10T03:30:26;12.40;99.90
6174;DHT22;3120;48.796;9.796;2023-05-10T03:32:52;12.20;99.90
6174;DHT22;3120;48.796;9.796;2023-05-10T03:35:18;12.40;99.90
6174;DHT22;3120;48.796;9.796;2023-05-10T03:37:43;12.40;99.90
6174;DHT22;3120;48.796;9.796;2023-05-10T03:40:10;12.50;99.90
6174;DHT22;3120;48.796;9.796;2023-05-10T03:42:36;12.50;99.90
6174;DHT22;3120;48.796;9.796;2023-05-10T03:45:02;12.50;99.90
6174;DHT22;3120;48.796;9.796;2023-05-10T03:47:27;12.50;99.90
6174;DHT22;3120;48.796;9.796;2023-05-10T03:49:53;12.50;99.90
6174;DHT22;3120;48.796;9.796;2023-05-10T03:52:18;12.50;99.90
6174;DHT22;3120;48.796;9.796;2023-05-10T03:54:44;12.50;99.90
6174;DHT22;3120;48.796;9.796;2023-05-10T03:57:09;12.50;99.90
6174;DHT22;3120;48.796;9.796;2023-05-10T03:59:35;12.50;99.90
6174;DHT22;3120;48.796;9.796;2023-05-10T04:02:01;12.50;99.90
6174;DHT22;3120;48.796;9.796;2023-05-10T04:04:26;12.50;99.90
6174;DHT22;3120;48.796;9.796;2023-05-10T04:06:52;12.50;99.90
6174;DHT22;3120;48.796;9.796;2023-05-10T04:09:17;12.50;99.90
6174;DHT22;3120;48.796;9.796;2023-05-10T04:11:43;12.50;99.90
6174;DHT22;3120;48.796;9.796;2023-05-10T04:14:09;13.20;99.90
6174;DHT22;3120;48.796;9.796;2023-05-10T04:16:34;12.50;99.90
6174;DHT22;3120;48.796;9.796;2023-05-10T04:19:00;12.60;99.90
6174;DHT22;3120;48.796;9.796;2023-05-10T04:21:25;12.60;99.90
6174;DHT22;3120;48.796;9.796;2023-05-10T04:23:51;12.60;99.90
6174;DHT22;3120;48.796;9.796;2023-05-10T04:26:17;12.90;99.90
6174;DHT22;3120;48.796;9.796;2023-05-10T04:28:42;12.60;99.90
6174;DHT22;3120;48.796;9.796;2023-05-10T04:31:09;12.70;99.90
6174;DHT22;3120;48.796;9.796;2023-05-10T04:33:35;12.70;99.90
6174;DHT22;3120;48.796;9.796;2023-05-10T04:36:02;12.60;99.90
6174;DHT22;3120;48.796;9.796;2023-05-10T04:38:28;12.70;99.90
6174;DHT22;3120;48.796;9.796;2023-05-10T04:40:54;12.90;99.90
6174;DHT22;3120;48.796;9.796;2023-05-10T04:43:20;12.20;99.90
6174;DHT22;3120;48.796;9.796;2023-05-10T04:45:46;13.60;99.90
6174;DHT22;3120;48.796;9.796;2023-05-10T04:48:11;12.70;99.90
6174;DHT22;3120;48.796;9.796;2023-05-10T04:50:38;13.00;99.90
6174;DHT22;3120;48.796;9.796;2023-05-10T04:53:04;13.50;99.90
6174;DHT22;3120;48.796;9.796;2023-05-10T04:55:29;13.40;99.90
6174;DHT22;3120;48.796;9.796;2023-05-10T04:57:55;13.30;99.90
6174;DHT22;3120;48.796;9.796;2023-05-10T05:00:22;13.00;99.90
6174;DHT22;3120;48.796;9.796;2023-05-10T05:02:48;13.00;99.90
6174;DHT22;3120;48.796;9.796;2023-05-10T05:05:14;13.20;99.90
6174;DHT22;3120;48.796;9.796;2023-05-10T05:07:39;13.10;99.90
6174;DHT22;3120;48.796;9.796;2023-05-10T05:10:06;13.10;99.90
6174;DHT22;3120;48.796;9.796;2023-05-10T05:12:32;13.10;99.90
6174;DHT22;3120;48.796;9.796;2023-05-10T05:14:58;13.20;99.90
6174;DHT22;3120;48.796;9.796;2023-05-10T05:17:23;13.00;99.90
6174;DHT22;3120;48.796;9.796;2023-05-10T05:19:49;13.90;99.90
6174;DHT22;3120;48.796;9.796;2023-05-10T05:22:14;13.10;99.90
6174;DHT22;3120;48.796;9.796;2023-05-10T05:24:40;13.20;99.90
6174;DHT22;3120;48.796;9.796;2023-05-10T05:27:05;12.90;99.90
6174;DHT22;3120;48.796;9.796;2023-05-10T05:29:31;13.30;99.90
6174;DHT22;3120;48.796;9.796;2023-05-10T05:31:57;13.40;99.90
6174;DHT22;3120;48.796;9.796;2023-05-10T05:34:23;13.60;99.90
6174;DHT22;3120;48.796;9.796;2023-05-10T05:36:49;13.40;99.90
6174;DHT22;3120;48.796;9.796;2023-05-10T05:39:15;13.40;99.90
6174;DHT22;3120;48.796;9.796;2023-05-10T05:41:41;13.30;99.90
6174;DHT22;3120;48.796;9.796;2023-05-10T05:44:06;13.10;99.90
6174;DHT22;3120;48.796;9.796;2023-05-10T05:46:32;13.50;99.90
6174;DHT22;3120;48.796;9.796;2023-05-10T05:48:58;13.30;99.90
6174;DHT22;3120;48.796;9.796;2023-05-10T05:51:23;13.30;99.90
6174;DHT22;3120;48.796;9.796;2023-05-10T05:53:49;13.40;99.90
6174;DHT22;3120;48.796;9.796;2023-05-10T05:56:14;13.80;99.90
6174;DHT22;3120;48.796;9.796;2023-05-10T05:58:40;13.50;99.90
6174;DHT22;3120;48.796;9.796;2023-05-10T06:01:06;13.50;99.90
6174;DHT22;3120;48.796;9.796;2023-05-10T06:03:31;13.20;99.90
6174;DHT22;3120;48.796;9.796;2023-05-10T06:05:58;13.60;99.90
6174;DHT22;3120;48.796;9.796;2023-05-10T06:08:23;13.60;99.90
6174;DHT22;3120;48.796;9.796;2023-05-10T06:10:49;13.70;99.90
6174;DHT22;3120;48.796;9.796;2023-05-10T06:13:14;13.80;99.90
6174;DHT22;3120;48.796;9.796;2023-05-10T06:15:41;13.90;99.90
6174;DHT22;3120;48.796;9.796;2023-05-10T06:18:06;13.80;99.90
6174;DHT22;3120;48.796;9.796;2023-05-10T06:20:32;14.20;99.90
6174;DHT22;3120;48.796;9.796;2023-05-10T06:22:58;14.00;99.90
6174;DHT22;3120;48.796;9.796;2023-05-10T06:25:24;14.00;99.90
6174;DHT22;3120;48.796;9.796;2023-05-10T06:27:49;14.20;99.90
6174;DHT22;3120;48.796;9.796;2023-05-10T06:30:15;13.60;99.90
6174;DHT22;3120;48.796;9.796;2023-05-10T06:32:41;13.90;99.90
6174;DHT22;3120;48.796;9.796;2023-05-10T06:35:07;13.90;99.90
6174;DHT22;3120;48.796;9.796;2023-05-10T06:37:33;13.80;99.90
6174;DHT22;3120;48.796;9.796;2023-05-10T06:39:59;14.30;99.90
6174;DHT22;3120;48.796;9.796;2023-05-10T06:42:26;13.80;99.90
6174;DHT22;3120;48.796;9.796;2023-05-10T06:44:52;13.90;99.90
6174;DHT22;3120;48.796;9.796;2023-05-10T06:47:18;14.00;99.90
6174;DHT22;3120;48.796;9.796;2023-05-10T06:49:44;14.10;99.90
6174;DHT22;3120;48.796;9.796;2023-05-10T06:52:09;14.00;99.90
6174;DHT22;3120;48.796;9.796;2023-05-10T06:54:35;14.00;99.90
6174;DHT22;3120;48.796;9.796;2023-05-10T06:57:00;13.90;99.90
6174;DHT22;3120;48.796;9.796;2023-05-10T06:59:28;13.80;99.90
6174;DHT22;3120;48.796;9.796;2023-05-10T07:01:53;13.80;99.90
6174;DHT22;3120;48.796;9.796;2023-05-10T07:04:19;13.80;99.90
6174;DHT22;3120;48.796;9.796;2023-05-10T07:06:45;13.80;99.90
6174;DHT22;3120;48.796;9.796;2023-05-10T07:09:12;13.70;99.90
6174;DHT22;3120;48.796;9.796;2023-05-10T07:11:38;13.70;99.90
6174;DHT22;3120;48.796;9.796;2023-05-10T07:14:04;13.70;99.90
6174;DHT22;3120;48.796;9.796;2023-05-10T07:16:30;13.70;99.90
6174;DHT22;3120;48.796;9.796;2023-05-10T07:18:56;13.60;99.90
6174;DHT22;3120;48.796;9.796;2023-05-10T07:21:21;14.30;99.90
6174;DHT22;3120;48.796;9.796;2023-05-10T07:23:49;14.10;99.90
6174;DHT22;3120;48.796;9.796;2023-05-10T07:26:15;13.70;99.90
6174;DHT22;3120;48.796;9.796;2023-05-10T07:28:41;13.60;99.90
6174;DHT22;3120;48.796;9.796;2023-05-10T07:31:07;13.70;99.90
6174;DHT22;3120;48.796;9.796;2023-05-10T07:33:32;13.60;99.90
6174;DHT22;3120;48.796;9.796;2023-05-10T07:35:58;13.60;99.90
6174;DHT22;3120;48.796;9.796;2023-05-10T07:38:23;13.50;99.90
6174;DHT22;3120;48.796;9.796;2023-05-10T07:40:49;13.40;99.90
6174;DHT22;3120;48.796;9.796;2023-05-10T07:43:14;13.60;99.90
6174;DHT22;3120;48.796;9.796;2023-05-10T07:45:40;13.50;99.90
6174;DHT22;3120;48.796;9.796;2023-05-10T07:48:05;13.50;99.90
6174;DHT22;3120;48.796;9.796;2023-05-10T07:50:31;13.50;99.90
6174;DHT22;3120;48.796;9.796;2023-05-10T07:52:57;14.10;99.90
6174;DHT22;3120;48.796;9.796;2023-05-10T07:55:22;13.60;99.90
6174;DHT22;3120;48.796;9.796;2023-05-10T07:57:48;13.70;99.90
6174;DHT22;3120;48.796;9.796;2023-05-10T08:00:17;13.40;99.90
6174;DHT22;3120;48.796;9.796;2023-05-10T08:02:43;13.40;99.90
6174;DHT22;3120;48.796;9.796;2023-05-10T08:05:09;13.50;99.90
6174;DHT22;3120;48.796;9.796;2023-05-10T08:07:35;13.50;99.90
6174;DHT22;3120;48.796;9.796;2023-05-10T08:10:01;13.50;99.90
6174;DHT22;3120;48.796;9.796;2023-05-10T08:12:27;13.70;99.90
6174;DHT22;3120;48.796;9.796;2023-05-10T08:14:53;13.80;99.90
6174;DHT22;3120;48.796;9.796;2023-05-10T08:17:18;14.30;99.90
6174;DHT22;3120;48.796;9.796;2023-05-10T08:19:44;13.90;99.90
6174;DHT22;3120;48.796;9.796;2023-05-10T08:22:10;14.40;99.90
6174;DHT22;3120;48.796;9.796;2023-05-10T08:24:35;14.20;99.90
6174;DHT22;3120;48.796;9.796;2023-05-10T08:27:05;14.40;99.90
6174;DHT22;3120;48.796;9.796;2023-05-10T08:29:31;14.60;99.90
6174;DHT22;3120;48.796;9.796;2023-05-10T08:31:56;14.80;99.90
6174;DHT22;3120;48.796;9.796;2023-05-10T08:34:22;15.00;99.90
6174;DHT22;3120;48.796;9.796;2023-05-10T08:36:47;15.10;99.90
6174;DHT22;3120;48.796;9.796;2023-05-10T08:39:13;15.00;99.90
6174;DHT22;3120;48.796;9.796;2023-05-10T08:41:39;15.10;99.90
6174;DHT22;3120;48.796;9.796;2023-05-10T08:44:07;15.00;99.90
6174;DHT22;3120;48.796;9.796;2023-05-10T08:46:34;15.60;99.90
6174;DHT22;3120;48.796;9.796;2023-05-10T08:49:04;15.50;99.90
6174;DHT22;3120;48.796;9.796;2023-05-10T08:51:35;15.90;99.90
6174;DHT22;3120;48.796;9.796;2023-05-10T08:54:02;15.00;99.90
6174;DHT22;3120;48.796;9.796;2023-05-10T08:56:29;15.00;76.60
6174;DHT22;3120;48.796;9.796;2023-05-10T08:58:55;15.90;1.60
6174;DHT22;3120;48.796;9.796;2023-05-10T09:01:21;15.60;98.00
6174;DHT22;3120;48.796;9.796;2023-05-10T09:03:47;15.10;99.90
6174;DHT22;3120;48.796;9.796;2023-05-10T09:06:13;15.10;99.90
6174;DHT22;3120;48.796;9.796;2023-05-10T09:08:41;15.50;1.00
6174;DHT22;3120;48.796;9.796;2023-05-10T09:11:08;15.60;1.00
6174;DHT22;3120;48.796;9.796;2023-05-10T09:13:36;14.90;1.00
6174;DHT22;3120;48.796;9.796;2023-05-10T09:16:03;14.60;1.00
6174;DHT22;3120;48.796;9.796;2023-05-10T09:18:29;14.70;12.80
6174;DHT22;3120;48.796;9.796;2023-05-10T09:20:54;14.70;99.90
6174;DHT22;3120;48.796;9.796;2023-05-10T09:23:20;15.20;46.80
6174;DHT22;3120;48.796;9.796;2023-05-10T09:25:46;14.90;24.70
6174;DHT22;3120;48.796;9.796;2023-05-10T09:28:13;14.90;10.20
6174;DHT22;3120;48.796;9.796;2023-05-10T09:30:39;14.80;1.00
6174;DHT22;3120;48.796;9.796;2023-05-10T09:33:05;14.80;91.60
6174;DHT22;3120;48.796;9.796;2023-05-10T09:35:32;14.70;97.10
6174;DHT22;3120;48.796;9.796;2023-05-10T09:38:04;14.70;99.90
6174;DHT22;3120;48.796;9.796;2023-05-10T09:40:30;16.40;99.90
6174;DHT22;3120;48.796;9.796;2023-05-10T09:45:24;15.70;1.00
6174;DHT22;3120;48.796;9.796;2023-05-10T09:47:50;15.10;1.00
6174;DHT22;3120;48.796;9.796;2023-05-10T09:50:16;16.50;99.90
6174;DHT22;3120;48.796;9.796;2023-05-10T09:52:52;15.30;1.00
6174;DHT22;3120;48.796;9.796;2023-05-10T09:55:20;15.10;1.00
6174;DHT22;3120;48.796;9.796;2023-05-10T09:57:47;15.20;99.90
6174;DHT22;3120;48.796;9.796;2023-05-10T10:00:19;16.20;1.00
6174;DHT22;3120;48.796;9.796;2023-05-10T10:02:58;15.10;99.90
6174;DHT22;3120;48.796;9.796;2023-05-10T10:05:32;15.10;99.90
6174;DHT22;3120;48.796;9.796;2023-05-10T10:07:58;15.30;99.90
6174;DHT22;3120;48.796;9.796;2023-05-10T10:10:25;15.50;1.00
6174;DHT22;3120;48.796;9.796;2023-05-10T10:12:51;15.50;1.00
6174;DHT22;3120;48.796;9.796;2023-05-10T10:15:17;15.70;99.90
6174;DHT22;3120;48.796;9.796;2023-05-10T10:17:43;15.80;1.00
6174;DHT22;3120;48.796;9.796;2023-05-10T10:20:09;16.00;1.00
6174;DHT22;3120;48.796;9.796;2023-05-10T10:22:36;16.00;99.90
6174;DHT22;3120;48.796;9.796;2023-05-10T10:25:02;16.00;99.90
6174;DHT22;3120;48.796;9.796;2023-05-10T10:35:47;15.90;1.00
6174;DHT22;3120;48.796;9.796;2023-05-10T10:38:13;16.10;1.00
6174;DHT22;3120;48.796;9.796;2023-05-10T10:40:39;16.10;47.80
6174;DHT22;3120;48.796;9.796;2023-05-10T10:48:36;16.20;99.90
6174;DHT22;3120;48.796;9.796;2023-05-10T10:51:02;16.30;1.00
6174;DHT22;3120;48.796;9.796;2023-05-10T10:53:28;16.50;99.90
6174;DHT22;3120;48.796;9.796;2023-05-10T10:56:12;16.70;1.00
6174;DHT22;3120;48.796;9.796;2023-05-10T10:58:41;16.20;99.90
6174;DHT22;3120;48.796;9.796;2023-05-10T11:01:12;16.20;64.50
6174;DHT22;3120;48.796;9.796;2023-05-10T11:03:38;16.20;1.00
6174;DHT22;3120;48.796;9.796;2023-05-10T11:11:07;16.60;1.00
6174;DHT22;3120;48.796;9.796;2023-05-10T11:13:46;16.50;1.00
6174;DHT22;3120;48.796;9.796;2023-05-10T11:16:21;16.50;99.90
6174;DHT22;3120;48.796;9.796;2023-05-10T11:19:07;16.40;1.00
6174;DHT22;3120;48.796;9.796;2023-05-10T11:21:33;16.40;99.90
6174;DHT22;3120;48.796;9.796;2023-05-10T11:24:00;16.50;99.90
6174;DHT22;3120;48.796;9.796;2023-05-10T11:26:33;16.50;99.90
6174;DHT22;3120;48.796;9.796;2023-05-10T11:28:59;16.50;1.00
6174;DHT22;3120;48.796;9.796;2023-05-10T11:31:26;16.40;1.00
6174;DHT22;3120;48.796;9.796;2023-05-10T11:33:58;16.00;1.00
6174;DHT22;3120;48.796;9.796;2023-05-10T11:36:25;15.90;1.00
6174;DHT22;3120;48.796;9.796;2023-05-10T11:38:51;15.70;99.90
6174;DHT22;3120;48.796;9.796;2023-05-10T11:41:18;15.60;99.90
6174;DHT22;3120;48.796;9.796;2023-05-10T11:43:46;15.40;1.00
6174;DHT22;3120;48.796;9.796;2023-05-10T11:46:14;15.30;1.00
6174;DHT22;3120;48.796;9.796;2023-05-10T11:48:40;15.40;99.90
6174;DHT22;3120;48.796;9.796;2023-05-10T11:51:07;15.20;1.00
6174;DHT22;3120;48.796;9.796;2023-05-10T11:53:33;15.20;1.00
6174;DHT22;3120;48.796;9.796;2023-05-10T11:56:06;15.30;1.00
6174;DHT22;3120;48.796;9.796;2023-05-10T11:58:33;15.30;1.00
6174;DHT22;3120;48.796;9.796;2023-05-10T12:01:02;15.40;99.90
6174;DHT22;3120;48.796;9.796;2023-05-10T12:03:28;15.50;43.70
6174;DHT22;3120;48.796;9.796;2023-05-10T12:05:55;15.50;99.90
6174;DHT22;3120;48.796;9.796;2023-05-10T12:08:25;15.70;99.90
6174;DHT22;3120;48.796;9.796;2023-05-10T12:10:53;15.80;1.00
6174;DHT22;3120;48.796;9.796;2023-05-10T12:13:20;16.00;22.80
6174;DHT22;3120;48.796;9.796;2023-05-10T12:15:46;16.10;99.90
6174;DHT22;3120;48.796;9.796;2023-05-10T12:18:13;16.20;1.00
6174;DHT22;3120;48.796;9.796;2023-05-10T12:20:40;16.30;99.90
6174;DHT22;3120;48.796;9.796;2023-05-10T12:23:07;16.30;99.90
6174;DHT22;3120;48.796;9.796;2023-05-10T12:25:34;16.20;86.30
6174;DHT22;3120;48.796;9.796;2023-05-10T12:28:03;16.20;99.90
6174;DHT22;3120;48.796;9.796;2023-05-10T12:30:31;16.10;99.90
6174;DHT22;3120;48.796;9.796;2023-05-10T12:33:08;15.90;99.90
6174;DHT22;3120;48.796;9.796;2023-05-10T12:35:45;15.70;1.00
6174;DHT22;3120;48.796;9.796;2023-05-10T12:41:16;15.20;1.00
6174;DHT22;3120;48.796;9.796;2023-05-10T12:43:43;15.10;99.90
6174;DHT22;3120;48.796;9.796;2023-05-10T12:46:10;15.10;99.90
6174;DHT22;3120;48.796;9.796;2023-05-10T12:48:37;15.10;99.90
6174;DHT22;3120;48.796;9.796;2023-05-10T12:51:03;15.10;1.00
6174;DHT22;3120;48.796;9.796;2023-05-10T12:53:30;14.70;99.90
6174;DHT22;3120;48.796;9.796;2023-05-10T12:55:56;14.40;1.00
6174;DHT22;3120;48.796;9.796;2023-05-10T12:58:21;14.30;1.00
6174;DHT22;3120;48.796;9.796;2023-05-10T13:00:47;14.20;1.00
6174;DHT22;3120;48.796;9.796;2023-05-10T13:03:12;14.10;99.90
6174;DHT22;3120;48.796;9.796;2023-05-10T13:05:38;14.00;1.00
6174;DHT22;3120;48.796;9.796;2023-05-10T13:08:04;13.90;99.60
6174;DHT22;3120;48.796;9.796;2023-05-10T13:10:30;13.90;99.90
6174;DHT22;3120;48.796;9.796;2023-05-10T13:12:57;13.80;1.00
6174;DHT22;3120;48.796;9.796;2023-05-10T13:15:23;13.70;1.00
6174;DHT22;3120;48.796;9.796;2023-05-10T13:17:48;13.60;1.00
6174;DHT22;3120;48.796;9.796;2023-05-10T13:20:14;13.40;26.40
6174;DHT22;3120;48.796;9.796;2023-05-10T13:22:41;13.40;90.40
6174;DHT22;3120;48.796;9.796;2023-05-10T13:25:07;13.60;99.90
6174;DHT22;3120;48.796;9.796;2023-05-10T13:27:32;13.70;61.70
6174;DHT22;3120;48.796;9.796;2023-05-10T13:29:58;13.60;99.90
6174;DHT22;3120;48.796;9.796;2023-05-10T13:32:25;13.50;31.00
6174;DHT22;3120;48.796;9.796;2023-05-10T13:34:51;13.50;99.90
6174;DHT22;3120;48.796;9.796;2023-05-10T13:37:16;13.60;99.90
6174;DHT22;3120;48.796;9.796;2023-05-10T13:39:42;13.50;91.40
6174;DHT22;3120;48.796;9.796;2023-05-10T13:42:07;13.60;95.90
6174;DHT22;3120;48.796;9.796;2023-05-10T13:44:33;13.70;94.20
6174;DHT22;3120;48.796;9.796;2023-05-10T13:46:59;13.60;99.90
6174;DHT22;3120;48.796;9.796;2023-05-10T13:49:24;13.60;46.30
6174;DHT22;3120;48.796;9.796;2023-05-10T13:51:50;13.70;99.90
6174;DHT22;3120;48.796;9.796;2023-05-10T13:54:16;13.80;99.00
6174;DHT22;3120;48.796;9.796;2023-05-10T13:56:45;14.00;4.50
6174;DHT22;3120;48.796;9.796;2023-05-10T13:59:12;14.10;38.10
6174;DHT22;3120;48.796;9.796;2023-05-10T14:01:39;14.10;62.10
6174;DHT22;3120;48.796;9.796;2023-05-10T14:04:05;14.10;1.00
6174;DHT22;3120;48.796;9.796;2023-05-10T14:06:31;14.10;27.50
6174;DHT22;3120;48.796;9.796;2023-05-10T14:08:57;14.30;1.00
6174;DHT22;3120;48.796;9.796;2023-05-10T14:11:22;14.50;5.60
6174;DHT22;3120;48.796;9.796;2023-05-10T14:13:48;14.60;1.00
6174;DHT22;3120;48.796;9.796;2023-05-10T14:16:14;14.90;99.90
6174;DHT22;3120;48.796;9.796;2023-05-10T14:18:40;15.00;1.00
6174;DHT22;3120;48.796;9.796;2023-05-10T14:21:05;14.90;99.90
6174;DHT22;3120;48.796;9.796;2023-05-10T14:23:31;14.70;1.00
6174;DHT22;3120;48.796;9.796;2023-05-10T14:25:57;14.70;1.00
6174;DHT22;3120;48.796;9.796;2023-05-10T14:28:22;14.70;1.00
6174;DHT22;3120;48.796;9.796;2023-05-10T14:30:49;14.80;99.90
6174;DHT22;3120;48.796;9.796;2023-05-10T14:33:15;14.90;1.00
6174;DHT22;3120;48.796;9.796;2023-05-10T14:35:41;15.00;1.00
6174;DHT22;3120;48.796;9.796;2023-05-10T14:38:06;14.90;1.00
6174;DHT22;3120;48.796;9.796;2023-05-10T14:40:32;14.80;1.00
6174;DHT22;3120;48.796;9.796;2023-05-10T14:42:57;14.80;99.90
6174;DHT22;3120;48.796;9.796;2023-05-10T14:45:23;14.80;99.90
6174;DHT22;3120;48.796;9.796;2023-05-10T14:47:49;15.00;13.00
6174;DHT22;3120;48.796;9.796;2023-05-10T14:50:15;15.00;1.00
6174;DHT22;3120;48.796;9.796;2023-05-10T14:52:42;14.90;1.00
6174;DHT22;3120;48.796;9.796;2023-05-10T14:55:08;15.00;99.90
6174;DHT22;3120;48.796;9.796;2023-05-10T14:57:33;15.10;1.00
6174;DHT22;3120;48.796;9.796;2023-05-10T14:59:59;15.20;1.00
6174;DHT22;3120;48.796;9.796;2023-05-10T15:02:25;15.20;70.30
6174;DHT22;3120;48.796;9.796;2023-05-10T15:04:50;15.00;99.90
6174;DHT22;3120;48.796;9.796;2023-05-10T15:07:16;15.00;1.00
6174;DHT22;3120;48.796;9.796;2023-05-10T15:09:46;15.00;99.90
6174;DHT22;3120;48.796;9.796;2023-05-10T15:12:12;15.00;99.90
6174;DHT22;3120;48.796;9.796;2023-05-10T15:14:37;15.10;8.60
6174;DHT22;3120;48.796;9.796;2023-05-10T15:17:05;15.20;17.10
6174;DHT22;3120;48.796;9.796;2023-05-10T15:19:31;15.10;91.20
6174;DHT22;3120;48.796;9.796;2023-05-10T15:21:58;15.00;99.90
6174;DHT22;3120;48.796;9.796;2023-05-10T15:24:24;14.90;1.00
6174;DHT22;3120;48.796;9.796;2023-05-10T15:26:50;15.20;99.90
6174;DHT22;3120;48.796;9.796;2023-05-10T15:29:15;15.20;1.00
6174;DHT22;3120;48.796;9.796;2023-05-10T15:31:46;15.20;6.30
6174;DHT22;3120;48.796;9.796;2023-05-10T15:34:11;15.20;15.20
6174;DHT22;3120;48.796;9.796;2023-05-10T15:36:37;15.10;1.00
6174;DHT22;3120;48.796;9.796;2023-05-10T15:39:02;15.20;1.00
6174;DHT22;3120;48.796;9.796;2023-05-10T15:41:29;15.10;99.90
6174;DHT22;3120;48.796;9.796;2023-05-10T15:43:55;15.10;1.00
6174;DHT22;3120;48.796;9.796;2023-05-10T15:46:21;15.00;1.00
6174;DHT22;3120;48.796;9.796;2023-05-10T15:48:46;15.00;99.90
6174;DHT22;3120;48.796;9.796;2023-05-10T15:51:12;15.00;1.00
6174;DHT22;3120;48.796;9.796;2023-05-10T15:53:38;15.00;99.90
6174;DHT22;3120;48.796;9.796;2023-05-10T15:56:03;15.10;1.00
6174;DHT22;3120;48.796;9.796;2023-05-10T15:58:30;15.00;1.00
6174;DHT22;3120;48.796;9.796;2023-05-10T16:00:56;15.10;1.00
6174;DHT22;3120;48.796;9.796;2023-05-10T16:03:22;15.10;99.90
6174;DHT22;3120;48.796;9.796;2023-05-10T16:05:47;15.10;1.00
6174;DHT22;3120;48.796;9.796;2023-05-10T16:08:13;15.20;99.90
6174;DHT22;3120;48.796;9.796;2023-05-10T16:10:39;15.10;1.00
6174;DHT22;3120;48.796;9.796;2023-05-10T16:13:04;15.10;78.80
6174;DHT22;3120;48.796;9.796;2023-05-10T16:15:30;15.20;99.90
6174;DHT22;3120;48.796;9.796;2023-05-10T16:17:56;15.10;99.90
6174;DHT22;3120;48.796;9.796;2023-05-10T16:20:22;14.90;44.20
6174;DHT22;3120;48.796;9.796;2023-05-10T16:22:48;14.70;99.90
6174;DHT22;3120;48.796;9.796;2023-05-10T16:25:13;14.60;99.90
6174;DHT22;3120;48.796;9.796;2023-05-10T16:27:39;14.80;1.00
6174;DHT22;3120;48.796;9.796;2023-05-10T16:30:05;14.90;1.00
6174;DHT22;3120;48.796;9.796;2023-05-10T16:32:31;14.90;99.90
6174;DHT22;3120;48.796;9.796;2023-05-10T16:34:57;14.90;99.90
6174;DHT22;3120;48.796;9.796;2023-05-10T16:37:23;14.80;99.90
6174;DHT22;3120;48.796;9.796;2023-05-10T16:39:49;14.70;1.00
6174;DHT22;3120;48.796;9.796;2023-05-10T16:42:14;14.70;1.00